sensor_id;sensor_type;location;lat;lon;timestamp;temperature;humidity
14769;DHT22;7476;49.404;11.152;2022-09-25T00:00:42;11.40;99.90
14769;DHT22;7476;49.404;11.152;2022-09-25T00:03:11;11.50;99.90
14769;DHT22;7476;49.404;11.152;2022-09-25T00:05:39;11.30;99.90
14769;DHT22;7476;49.404;11.152;2022-09-25T00:08:07;11.20;99.90
14769;DHT22;7476;49.404;11.152;2022-09-25T00:10:39;11.20;99.90
14769;DHT22;7476;49.404;11.152;2022-09-25T00:13:06;10.90;99.90
14769;DHT22;7476;49.404;11.152;2022-09-25T00:15:33;10.70;99.90
14769;DHT22;7476;49.404;11.152;2022-09-25T00:17:59;10.80;99.90
14769;DHT22;7476;49.404;11.152;2022-09-25T00:20:27;10.90;99.90
14769;DHT22;7476;49.404;11.152;2022-09-25T00:22:53;10.90;99.90
14769;DHT22;7476;49.404;11.152;2022-09-25T00:25:21;10.90;99.90
14769;DHT22;7476;49.404;11.152;2022-09-25T00:27:52;10.80;99.90
14769;DHT22;7476;49.404;11.152;2022-09-25T00:30:19;10.80;99.90
14769;DHT22;7476;49.404;11.152;2022-09-25T00:32:46;10.80;99.90
14769;DHT22;7476;49.404;11.152;2022-09-25T00:35:12;10.80;99.90
14769;DHT22;7476;49.404;11.152;2022-09-25T00:37:40;10.70;99.90
14769;DHT22;7476;49.404;11.152;2022-09-25T00:40:08;10.70;99.90
14769;DHT22;7476;49.404;11.152;2022-09-25T00:42:35;10.80;99.90
14769;DHT22;7476;49.404;11.152;2022-09-25T00:45:03;10.90;99.90
14769;DHT22;7476;49.404;11.152;2022-09-25T00:47:41;11.00;99.90
14769;DHT22;7476;49.404;11.152;2022-09-25T00:50:18;11.10;99.90
14769;DHT22;7476;49.404;11.152;2022-09-25T00:52:48;11.10;99.90
14769;DHT22;7476;49.404;11.152;2022-09-25T00:55:16;11.10;99.90
14769;DHT22;7476;49.404;11.152;2022-09-25T00:57:46;11.10;99.90
14769;DHT22;7476;49.404;11.152;2022-09-25T01:00:15;11.10;99.90
14769;DHT22;7476;49.404;11.152;2022-09-25T01:02:44;11.10;99.90
14769;DHT22;7476;49.404;11.152;2022-09-25T01:05:15;11.10;99.90
14769;DHT22;7476;49.404;11.152;2022-09-25T01:07:44;11.10;99.90
14769;DHT22;7476;49.404;11.152;2022-09-25T01:10:13;11.00;99.90
14769;DHT22;7476;49.404;11.152;2022-09-25T01:12:42;11.00;99.90
14769;DHT22;7476;49.404;11.152;2022-09-25T01:15:11;10.90;99.90
14769;DHT22;7476;49.404;11.152;2022-09-25T01:17:42;10.90;99.90
14769;DHT22;7476;49.404;11.152;2022-09-25T01:20:16;10.90;99.90
14769;DHT22;7476;49.404;11.152;2022-09-25T01:22:56;10.80;99.90
14769;DHT22;7476;49.404;11.152;2022-09-25T01:25:42;10.80;99.90
14769;DHT22;7476;49.404;11.152;2022-09-25T01:28:36;10.70;99.90
14769;DHT22;7476;49.404;11.152;2022-09-25T01:31:10;10.70;99.90
14769;DHT22;7476;49.404;11.152;2022-09-25T01:33:45;10.70;99.90
14769;DHT22;7476;49.404;11.152;2022-09-25T01:36:18;10.80;99.90
14769;DHT22;7476;49.404;11.152;2022-09-25T01:38:49;10.80;99.90
14769;DHT22;7476;49.404;11.152;2022-09-25T01:41:20;10.90;99.90
14769;DHT22;7476;49.404;11.152;2022-09-25T01:43:52;11.00;99.90
14769;DHT22;7476;49.404;11.152;2022-09-25T01:46:23;11.00;99.90
14769;DHT22;7476;49.404;11.152;2022-09-25T01:48:54;11.00;99.90
14769;DHT22;7476;49.404;11.152;2022-09-25T01:51:26;11.00;99.90
14769;DHT22;7476;49.404;11.152;2022-09-25T01:53:57;10.90;99.90
14769;DHT22;7476;49.404;11.152;2022-09-25T01:56:27;10.90;99.90
14769;DHT22;7476;49.404;11.152;2022-09-25T01:59:04;11.00;99.90
14769;DHT22;7476;49.404;11.152;2022-09-25T02:01:34;11.00;99.90
14769;DHT22;7476;49.404;11.152;2022-09-25T02:04:07;11.10;99.90
14769;DHT22;7476;49.404;11.152;2022-09-25T02:06:37;11.10;99.90
14769;DHT22;7476;49.404;11.152;2022-09-25T02:09:09;11.10;99.90
14769;DHT22;7476;49.404;11.152;2022-09-25T02:11:39;11.10;99.90
14769;DHT22;7476;49.404;11.152;2022-09-25T02:14:14;11.10;99.90
14769;DHT22;7476;49.404;11.152;2022-09-25T02:16:41;11.00;99.90
14769;DHT22;7476;49.404;11.152;2022-09-25T02:19:09;10.90;99.90
14769;DHT22;7476;49.404;11.152;2022-09-25T02:21:57;10.80;99.90
14769;DHT22;7476;49.404;11.152;2022-09-25T02:24:32;10.80;99.90
14769;DHT22;7476;49.404;11.152;2022-09-25T02:27:01;10.90;99.90
14769;DHT22;7476;49.404;11.152;2022-09-25T02:29:30;10.80;99.90
14769;DHT22;7476;49.404;11.152;2022-09-25T02:31:59;10.70;99.90
14769;DHT22;7476;49.404;11.152;2022-09-25T02:34:28;10.60;99.90
14769;DHT22;7476;49.404;11.152;2022-09-25T02:36:55;10.50;99.90
14769;DHT22;7476;49.404;11.152;2022-09-25T02:39:23;10.50;99.90
14769;DHT22;7476;49.404;11.152;2022-09-25T02:42:13;10.60;99.90
14769;DHT22;7476;49.404;11.152;2022-09-25T02:44:57;10.50;99.90
14769;DHT22;7476;49.404;11.152;2022-09-25T02:47:33;10.60;99.90
14769;DHT22;7476;49.404;11.152;2022-09-25T02:50:09;10.60;99.90
14769;DHT22;7476;49.404;11.152;2022-09-25T02:52:43;10.60;99.90
14769;DHT22;7476;49.404;11.152;2022-09-25T02:55:18;10.70;99.90
14769;DHT22;7476;49.404;11.152;2022-09-25T02:57:51;10.70;99.90
14769;DHT22;7476;49.404;11.152;2022-09-25T03:00:20;10.80;99.90
14769;DHT22;7476;49.404;11.152;2022-09-25T03:02:50;10.90;99.90
14769;DHT22;7476;49.404;11.152;2022-09-25T03:05:19;10.90;99.90
14769;DHT22;7476;49.404;11.152;2022-09-25T03:07:46;10.90;99.90
14769;DHT22;7476;49.404;11.152;2022-09-25T03:10:32;11.00;99.90
14769;DHT22;7476;49.404;11.152;2022-09-25T03:13:12;11.00;99.90
14769;DHT22;7476;49.404;11.152;2022-09-25T03:15:40;11.00;99.90
14769;DHT22;7476;49.404;11.152;2022-09-25T03:18:10;11.00;99.90
14769;DHT22;7476;49.404;11.152;2022-09-25T03:20:36;11.00;99.90
14769;DHT22;7476;49.404;11.152;2022-09-25T03:23:03;11.00;99.90
14769;DHT22;7476;49.404;11.152;2022-09-25T03:25:30;10.90;99.90
14769;DHT22;7476;49.404;11.152;2022-09-25T03:27:56;10.90;99.90
14769;DHT22;7476;49.404;11.152;2022-09-25T03:30:23;10.90;99.90
14769;DHT22;7476;49.404;11.152;2022-09-25T03:32:51;10.90;99.90
14769;DHT22;7476;49.404;11.152;2022-09-25T03:35:18;11.00;99.90
14769;DHT22;7476;49.404;11.152;2022-09-25T03:37:44;11.00;99.90
14769;DHT22;7476;49.404;11.152;2022-09-25T03:40:11;11.00;99.90
14769;DHT22;7476;49.404;11.152;2022-09-25T03:42:37;11.00;99.90
14769;DHT22;7476;49.404;11.152;2022-09-25T03:45:05;11.00;99.90
14769;DHT22;7476;49.404;11.152;2022-09-25T03:47:34;11.00;99.90
14769;DHT22;7476;49.404;11.152;2022-09-25T03:50:02;11.00;99.90
14769;DHT22;7476;49.404;11.152;2022-09-25T03:52:29;11.00;99.90
14769;DHT22;7476;49.404;11.152;2022-09-25T03:54:56;11.00;99.90
14769;DHT22;7476;49.404;11.152;2022-09-25T03:57:22;10.90;99.90
14769;DHT22;7476;49.404;11.152;2022-09-25T03:59:50;10.90;99.90
14769;DHT22;7476;49.404;11.152;2022-09-25T04:02:16;11.00;99.90
14769;DHT22;7476;49.404;11.152;2022-09-25T04:04:43;11.00;99.90
14769;DHT22;7476;49.404;11.152;2022-09-25T04:07:11;11.00;99.90
14769;DHT22;7476;49.404;11.152;2022-09-25T04:09:38;10.90;99.90
14769;DHT22;7476;49.404;11.152;2022-09-25T04:12:05;10.90;99.90
14769;DHT22;7476;49.404;11.152;2022-09-25T04:14:33;10.90;99.90
14769;DHT22;7476;49.404;11.152;2022-09-25T04:16:59;10.90;99.90
14769;DHT22;7476;49.404;11.152;2022-09-25T04:19:26;10.90;99.90
14769;DHT22;7476;49.404;11.152;2022-09-25T04:21:53;10.90;99.90
14769;DHT22;7476;49.404;11.152;2022-09-25T04:24:21;10.90;99.90
14769;DHT22;7476;49.404;11.152;2022-09-25T04:27:05;10.90;99.90
14769;DHT22;7476;49.404;11.152;2022-09-25T04:29:32;10.90;99.90
14769;DHT22;7476;49.404;11.152;2022-09-25T04:31:59;11.00;99.90
14769;DHT22;7476;49.404;11.152;2022-09-25T04:34:43;11.00;99.90
14769;DHT22;7476;49.404;11.152;2022-09-25T04:37:10;11.00;99.90
14769;DHT22;7476;49.404;11.152;2022-09-25T04:39:39;11.00;99.90
14769;DHT22;7476;49.404;11.152;2022-09-25T04:42:06;11.10;99.90
14769;DHT22;7476;49.404;11.152;2022-09-25T04:44:33;11.10;99.90
14769;DHT22;7476;49.404;11.152;2022-09-25T04:46:59;11.10;99.90
14769;DHT22;7476;49.404;11.152;2022-09-25T04:49:26;11.10;99.90
14769;DHT22;7476;49.404;11.152;2022-09-25T04:51:53;11.10;99.90
14769;DHT22;7476;49.404;11.152;2022-09-25T04:54:21;11.10;99.90
14769;DHT22;7476;49.404;11.152;2022-09-25T04:56:49;11.10;99.90
14769;DHT22;7476;49.404;11.152;2022-09-25T04:59:15;11.10;99.90
14769;DHT22;7476;49.404;11.152;2022-09-25T05:01:42;11.10;99.90
14769;DHT22;7476;49.404;11.152;2022-09-25T05:04:09;11.10;99.90
14769;DHT22;7476;49.404;11.152;2022-09-25T05:06:35;11.10;99.90
14769;DHT22;7476;49.404;11.152;2022-09-25T05:09:02;11.10;99.90
14769;DHT22;7476;49.404;11.152;2022-09-25T05:11:29;11.10;99.90
14769;DHT22;7476;49.404;11.152;2022-09-25T05:13:57;11.10;99.90
14769;DHT22;7476;49.404;11.152;2022-09-25T05:16:23;11.10;99.90
14769;DHT22;7476;49.404;11.152;2022-09-25T05:18:52;11.10;99.90
14769;DHT22;7476;49.404;11.152;2022-09-25T05:21:18;11.00;99.90
14769;DHT22;7476;49.404;11.152;2022-09-25T05:23:45;11.00;99.90
14769;DHT22;7476;49.404;11.152;2022-09-25T05:26:12;11.10;99.90
14769;DHT22;7476;49.404;11.152;2022-09-25T05:28:39;11.10;99.90
14769;DHT22;7476;49.404;11.152;2022-09-25T05:31:06;11.10;99.90
14769;DHT22;7476;49.404;11.152;2022-09-25T05:33:34;11.20;99.90
14769;DHT22;7476;49.404;11.152;2022-09-25T05:36:01;11.20;99.90
14769;DHT22;7476;49.404;11.152;2022-09-25T05:38:30;11.20;99.90
14769;DHT22;7476;49.404;11.152;2022-09-25T05:41:00;11.30;99.90
14769;DHT22;7476;49.404;11.152;2022-09-25T05:43:28;11.30;99.90
14769;DHT22;7476;49.404;11.152;2022-09-25T05:45:55;11.30;99.90
14769;DHT22;7476;49.404;11.152;2022-09-25T05:48:24;11.40;99.90
14769;DHT22;7476;49.404;11.152;2022-09-25T05:50:51;11.40;99.90
14769;DHT22;7476;49.404;11.152;2022-09-25T05:53:17;11.40;99.90
14769;DHT22;7476;49.404;11.152;2022-09-25T05:55:48;11.40;99.90
14769;DHT22;7476;49.404;11.152;2022-09-25T05:58:15;11.50;99.90
14769;DHT22;7476;49.404;11.152;2022-09-25T06:00:42;11.60;99.90
14769;DHT22;7476;49.404;11.152;2022-09-25T06:03:09;11.70;99.90
14769;DHT22;7476;49.404;11.152;2022-09-25T06:05:37;11.80;99.90
14769;DHT22;7476;49.404;11.152;2022-09-25T06:08:04;11.90;99.90
14769;DHT22;7476;49.404;11.152;2022-09-25T06:10:31;12.00;99.90
14769;DHT22;7476;49.404;11.152;2022-09-25T06:12:59;12.00;99.90
14769;DHT22;7476;49.404;11.152;2022-09-25T06:15:26;12.10;99.90
14769;DHT22;7476;49.404;11.152;2022-09-25T06:17:53;12.20;99.90
14769;DHT22;7476;49.404;11.152;2022-09-25T06:20:19;12.30;99.90
14769;DHT22;7476;49.404;11.152;2022-09-25T06:22:52;12.30;99.90
14769;DHT22;7476;49.404;11.152;2022-09-25T06:25:19;12.20;99.90
14769;DHT22;7476;49.404;11.152;2022-09-25T06:27:46;12.20;99.90
14769;DHT22;7476;49.404;11.152;2022-09-25T06:30:13;12.20;99.90
14769;DHT22;7476;49.404;11.152;2022-09-25T06:32:39;12.20;99.90
14769;DHT22;7476;49.404;11.152;2022-09-25T06:35:07;12.30;99.90
14769;DHT22;7476;49.404;11.152;2022-09-25T06:37:33;12.30;99.90
14769;DHT22;7476;49.404;11.152;2022-09-25T06:40:01;12.30;99.90
14769;DHT22;7476;49.404;11.152;2022-09-25T06:42:30;12.40;99.90
14769;DHT22;7476;49.404;11.152;2022-09-25T06:44:59;12.50;99.90
14769;DHT22;7476;49.404;11.152;2022-09-25T06:47:26;12.60;99.90
14769;DHT22;7476;49.404;11.152;2022-09-25T06:49:52;12.80;99.90
14769;DHT22;7476;49.404;11.152;2022-09-25T06:52:19;13.00;99.90
14769;DHT22;7476;49.404;11.152;2022-09-25T06:54:46;13.20;99.90
14769;DHT22;7476;49.404;11.152;2022-09-25T06:57:14;13.50;99.90
14769;DHT22;7476;49.404;11.152;2022-09-25T06:59:40;13.70;99.90
14769;DHT22;7476;49.404;11.152;2022-09-25T07:02:07;13.60;99.90
14769;DHT22;7476;49.404;11.152;2022-09-25T07:04:48;13.70;99.90
14769;DHT22;7476;49.404;11.152;2022-09-25T07:07:16;13.80;99.90
14769;DHT22;7476;49.404;11.152;2022-09-25T07:09:44;13.90;99.90
14769;DHT22;7476;49.404;11.152;2022-09-25T07:12:14;14.30;99.90
14769;DHT22;7476;49.404;11.152;2022-09-25T07:14:42;14.60;99.90
14769;DHT22;7476;49.404;11.152;2022-09-25T07:17:11;14.80;99.90
14769;DHT22;7476;49.404;11.152;2022-09-25T07:19:37;15.00;99.90
14769;DHT22;7476;49.404;11.152;2022-09-25T07:22:04;15.00;99.90
14769;DHT22;7476;49.404;11.152;2022-09-25T07:24:31;15.00;99.90
14769;DHT22;7476;49.404;11.152;2022-09-25T07:26:58;15.00;99.90
14769;DHT22;7476;49.404;11.152;2022-09-25T07:29:26;14.80;99.90
14769;DHT22;7476;49.404;11.152;2022-09-25T07:31:52;14.80;99.90
14769;DHT22;7476;49.404;11.152;2022-09-25T07:34:19;15.00;99.90
14769;DHT22;7476;49.404;11.152;2022-09-25T07:36:46;15.10;99.90
14769;DHT22;7476;49.404;11.152;2022-09-25T07:39:12;15.10;99.90
14769;DHT22;7476;49.404;11.152;2022-09-25T07:41:39;15.40;99.90
14769;DHT22;7476;49.404;11.152;2022-09-25T07:44:06;15.70;99.90
14769;DHT22;7476;49.404;11.152;2022-09-25T07:46:34;15.60;99.90
14769;DHT22;7476;49.404;11.152;2022-09-25T07:49:01;15.50;99.90
14769;DHT22;7476;49.404;11.152;2022-09-25T07:51:28;15.60;99.90
14769;DHT22;7476;49.404;11.152;2022-09-25T07:53:55;15.50;99.90
14769;DHT22;7476;49.404;11.152;2022-09-25T07:56:21;15.50;99.90
14769;DHT22;7476;49.404;11.152;2022-09-25T07:58:51;15.40;99.90
14769;DHT22;7476;49.404;11.152;2022-09-25T08:01:18;15.40;99.90
14769;DHT22;7476;49.404;11.152;2022-09-25T08:03:46;15.80;99.90
14769;DHT22;7476;49.404;11.152;2022-09-25T08:06:13;16.00;99.90
14769;DHT22;7476;49.404;11.152;2022-09-25T08:08:41;16.20;99.90
14769;DHT22;7476;49.404;11.152;2022-09-25T08:11:10;16.30;99.90
14769;DHT22;7476;49.404;11.152;2022-09-25T08:13:37;16.20;99.90
14769;DHT22;7476;49.404;11.152;2022-09-25T08:16:06;16.30;99.90
14769;DHT22;7476;49.404;11.152;2022-09-25T08:18:35;16.20;99.90
14769;DHT22;7476;49.404;11.152;2022-09-25T08:21:04;16.00;99.90
14769;DHT22;7476;49.404;11.152;2022-09-25T08:23:31;15.80;99.90
14769;DHT22;7476;49.404;11.152;2022-09-25T08:25:59;15.70;99.90
14769;DHT22;7476;49.404;11.152;2022-09-25T08:28:26;15.80;99.90
14769;DHT22;7476;49.404;11.152;2022-09-25T08:30:53;16.10;99.90
14769;DHT22;7476;49.404;11.152;2022-09-25T08:33:20;16.20;99.90
14769;DHT22;7476;49.404;11.152;2022-09-25T08:35:53;16.00;99.90
14769;DHT22;7476;49.404;11.152;2022-09-25T08:38:22;15.70;99.90
14769;DHT22;7476;49.404;11.152;2022-09-25T08:40:53;15.80;99.90
14769;DHT22;7476;49.404;11.152;2022-09-25T08:43:22;15.80;99.90
14769;DHT22;7476;49.404;11.152;2022-09-25T08:45:50;15.70;99.90
14769;DHT22;7476;49.404;11.152;2022-09-25T08:48:40;15.80;99.90
14769;DHT22;7476;49.404;11.152;2022-09-25T08:51:26;15.90;99.90
14769;DHT22;7476;49.404;11.152;2022-09-25T08:53:55;15.90;99.90
14769;DHT22;7476;49.404;11.152;2022-09-25T08:56:23;16.20;99.90
14769;DHT22;7476;49.404;11.152;2022-09-25T08:58:54;16.60;99.90
14769;DHT22;7476;49.404;11.152;2022-09-25T09:01:26;16.10;99.90
14769;DHT22;7476;49.404;11.152;2022-09-25T09:03:56;16.40;99.90
14769;DHT22;7476;49.404;11.152;2022-09-25T09:06:27;16.90;99.90
14769;DHT22;7476;49.404;11.152;2022-09-25T09:09:00;16.90;99.90
14769;DHT22;7476;49.404;11.152;2022-09-25T09:11:32;16.80;99.90
14769;DHT22;7476;49.404;11.152;2022-09-25T09:14:04;16.50;99.90
14769;DHT22;7476;49.404;11.152;2022-09-25T09:16:35;16.20;99.90
14769;DHT22;7476;49.404;11.152;2022-09-25T09:19:08;16.10;99.90
14769;DHT22;7476;49.404;11.152;2022-09-25T09:21:36;16.00;99.90
14769;DHT22;7476;49.404;11.152;2022-09-25T09:24:14;16.00;99.90
14769;DHT22;7476;49.404;11.152;2022-09-25T09:26:51;15.90;99.90
14769;DHT22;7476;49.404;11.152;2022-09-25T09:29:31;15.90;99.90
14769;DHT22;7476;49.404;11.152;2022-09-25T09:32:16;16.10;99.90
14769;DHT22;7476;49.404;11.152;2022-09-25T09:34:54;16.40;99.90
14769;DHT22;7476;49.404;11.152;2022-09-25T09:37:28;16.80;99.90
14769;DHT22;7476;49.404;11.152;2022-09-25T09:40:07;16.90;99.90
14769;DHT22;7476;49.404;11.152;2022-09-25T09:42:43;17.30;99.90
14769;DHT22;7476;49.404;11.152;2022-09-25T09:45:18;17.70;99.90
14769;DHT22;7476;49.404;11.152;2022-09-25T09:47:49;18.30;99.90
14769;DHT22;7476;49.404;11.152;2022-09-25T09:50:28;19.20;99.90
14769;DHT22;7476;49.404;11.152;2022-09-25T09:53:03;19.60;99.90
14769;DHT22;7476;49.404;11.152;2022-09-25T09:55:36;20.20;99.90
14769;DHT22;7476;49.404;11.152;2022-09-25T09:58:11;20.30;99.90
14769;DHT22;7476;49.404;11.152;2022-09-25T10:00:41;19.70;99.90
14769;DHT22;7476;49.404;11.152;2022-09-25T10:03:13;19.50;99.90
14769;DHT22;7476;49.404;11.152;2022-09-25T10:05:45;19.70;99.90
14769;DHT22;7476;49.404;11.152;2022-09-25T10:08:12;19.80;99.90
14769;DHT22;7476;49.404;11.152;2022-09-25T10:10:41;19.80;99.90
14769;DHT22;7476;49.404;11.152;2022-09-25T10:13:14;20.00;99.90
14769;DHT22;7476;49.404;11.152;2022-09-25T10:15:45;20.00;99.90
14769;DHT22;7476;49.404;11.152;2022-09-25T10:18:14;20.50;99.90
14769;DHT22;7476;49.404;11.152;2022-09-25T10:20:44;20.90;99.90
14769;DHT22;7476;49.404;11.152;2022-09-25T10:23:21;21.40;99.90
14769;DHT22;7476;49.404;11.152;2022-09-25T10:25:52;20.20;99.90
14769;DHT22;7476;49.404;11.152;2022-09-25T10:28:24;19.60;99.90
14769;DHT22;7476;49.404;11.152;2022-09-25T10:30:51;19.70;99.90
14769;DHT22;7476;49.404;11.152;2022-09-25T10:33:20;18.90;99.90
14769;DHT22;7476;49.404;11.152;2022-09-25T10:35:47;18.80;99.90
14769;DHT22;7476;49.404;11.152;2022-09-25T10:38:27;18.90;99.90
14769;DHT22;7476;49.404;11.152;2022-09-25T10:41:00;19.20;99.90
14769;DHT22;7476;49.404;11.152;2022-09-25T10:43:28;19.70;99.90
14769;DHT22;7476;49.404;11.152;2022-09-25T10:46:07;19.30;99.90
14769;DHT22;7476;49.404;11.152;2022-09-25T10:48:36;18.80;99.90
14769;DHT22;7476;49.404;11.152;2022-09-25T10:51:21;18.80;99.90
14769;DHT22;7476;49.404;11.152;2022-09-25T10:53:48;18.60;99.90
14769;DHT22;7476;49.404;11.152;2022-09-25T10:56:19;19.30;99.90
14769;DHT22;7476;49.404;11.152;2022-09-25T10:58:50;19.10;99.90
14769;DHT22;7476;49.404;11.152;2022-09-25T11:01:20;19.50;99.90
14769;DHT22;7476;49.404;11.152;2022-09-25T11:03:55;19.90;99.90
14769;DHT22;7476;49.404;11.152;2022-09-25T11:06:23;19.70;99.90
14769;DHT22;7476;49.404;11.152;2022-09-25T11:09:02;19.60;99.90
14769;DHT22;7476;49.404;11.152;2022-09-25T11:11:34;19.60;99.90
14769;DHT22;7476;49.404;11.152;2022-09-25T11:14:03;19.50;99.90
14769;DHT22;7476;49.404;11.152;2022-09-25T11:16:46;19.90;99.90
14769;DHT22;7476;49.404;11.152;2022-09-25T11:19:15;20.20;99.90
14769;DHT22;7476;49.404;11.152;2022-09-25T11:21:49;20.50;99.90
14769;DHT22;7476;49.404;11.152;2022-09-25T11:24:22;20.50;99.90
14769;DHT22;7476;49.404;11.152;2022-09-25T11:26:55;20.60;99.90
14769;DHT22;7476;49.404;11.152;2022-09-25T11:29:32;21.20;99.90
14769;DHT22;7476;49.404;11.152;2022-09-25T11:32:06;21.50;99.90
14769;DHT22;7476;49.404;11.152;2022-09-25T11:34:57;22.60;99.90
14769;DHT22;7476;49.404;11.152;2022-09-25T11:37:33;23.30;99.90
14769;DHT22;7476;49.404;11.152;2022-09-25T11:40:07;22.60;99.90
14769;DHT22;7476;49.404;11.152;2022-09-25T11:43:00;22.00;99.90
14769;DHT22;7476;49.404;11.152;2022-09-25T11:45:34;21.10;99.90
14769;DHT22;7476;49.404;11.152;2022-09-25T11:48:05;21.70;99.90
14769;DHT22;7476;49.404;11.152;2022-09-25T11:50:40;21.90;99.90
14769;DHT22;7476;49.404;11.152;2022-09-25T11:53:17;21.30;99.90
14769;DHT22;7476;49.404;11.152;2022-09-25T11:56:00;21.70;99.90
14769;DHT22;7476;49.404;11.152;2022-09-25T11:58:47;21.80;99.90
14769;DHT22;7476;49.404;11.152;2022-09-25T12:01:28;23.60;99.90
14769;DHT22;7476;49.404;11.152;2022-09-25T12:04:04;24.60;99.90
14769;DHT22;7476;49.404;11.152;2022-09-25T12:06:45;24.50;99.90
14769;DHT22;7476;49.404;11.152;2022-09-25T12:09:37;23.50;99.90
14769;DHT22;7476;49.404;11.152;2022-09-25T12:12:11;21.80;99.90
14769;DHT22;7476;49.404;11.152;2022-09-25T12:14:48;20.90;99.90
14769;DHT22;7476;49.404;11.152;2022-09-25T12:17:19;19.80;99.90
14769;DHT22;7476;49.404;11.152;2022-09-25T12:19:54;19.10;99.90
14769;DHT22;7476;49.404;11.152;2022-09-25T12:22:29;18.20;99.90
14769;DHT22;7476;49.404;11.152;2022-09-25T12:25:04;17.30;99.90
14769;DHT22;7476;49.404;11.152;2022-09-25T12:27:41;16.40;99.90
14769;DHT22;7476;49.404;11.152;2022-09-25T12:30:16;15.80;99.90
14769;DHT22;7476;49.404;11.152;2022-09-25T12:33:05;15.30;99.90
14769;DHT22;7476;49.404;11.152;2022-09-25T12:35:40;14.90;99.90
14769;DHT22;7476;49.404;11.152;2022-09-25T12:38:15;14.70;99.90
14769;DHT22;7476;49.404;11.152;2022-09-25T12:40:50;14.70;99.90
14769;DHT22;7476;49.404;11.152;2022-09-25T12:43:23;14.60;99.90
14769;DHT22;7476;49.404;11.152;2022-09-25T12:45:54;14.70;99.90
14769;DHT22;7476;49.404;11.152;2022-09-25T12:48:28;14.60;99.90
14769;DHT22;7476;49.404;11.152;2022-09-25T12:50:59;14.60;99.90
14769;DHT22;7476;49.404;11.152;2022-09-25T12:53:31;14.70;99.90
14769;DHT22;7476;49.404;11.152;2022-09-25T12:56:07;14.90;99.90
14769;DHT22;7476;49.404;11.152;2022-09-25T12:58:46;14.90;99.90
14769;DHT22;7476;49.404;11.152;2022-09-25T13:01:20;14.90;99.90
14769;DHT22;7476;49.404;11.152;2022-09-25T13:03:53;14.90;99.90
14769;DHT22;7476;49.404;11.152;2022-09-25T13:06:30;15.30;99.90
14769;DHT22;7476;49.404;11.152;2022-09-25T13:09:05;15.50;99.90
14769;DHT22;7476;49.404;11.152;2022-09-25T13:11:37;15.50;99.90
14769;DHT22;7476;49.404;11.152;2022-09-25T13:14:21;15.50;99.90
14769;DHT22;7476;49.404;11.152;2022-09-25T13:16:52;16.00;99.90
14769;DHT22;7476;49.404;11.152;2022-09-25T13:19:24;15.80;99.90
14769;DHT22;7476;49.404;11.152;2022-09-25T13:22:02;15.80;99.90
14769;DHT22;7476;49.404;11.152;2022-09-25T13:24:31;16.00;99.90
14769;DHT22;7476;49.404;11.152;2022-09-25T13:27:03;15.80;99.90
14769;DHT22;7476;49.404;11.152;2022-09-25T13:29:32;16.00;99.90
14769;DHT22;7476;49.404;11.152;2022-09-25T13:32:05;16.60;99.90
14769;DHT22;7476;49.404;11.152;2022-09-25T13:34:36;18.60;99.90
14769;DHT22;7476;49.404;11.152;2022-09-25T13:37:05;19.20;99.90
14769;DHT22;7476;49.404;11.152;2022-09-25T13:39:36;20.00;99.90
14769;DHT22;7476;49.404;11.152;2022-09-25T13:42:24;20.40;99.90
14769;DHT22;7476;49.404;11.152;2022-09-25T13:45:01;19.80;99.90
14769;DHT22;7476;49.404;11.152;2022-09-25T13:47:58;18.50;99.90
14769;DHT22;7476;49.404;11.152;2022-09-25T13:50:31;17.90;99.90
14769;DHT22;7476;49.404;11.152;2022-09-25T13:53:20;17.20;99.90
14769;DHT22;7476;49.404;11.152;2022-09-25T13:56:25;16.40;99.90
14769;DHT22;7476;49.404;11.152;2022-09-25T13:59:21;16.10;99.90
14769;DHT22;7476;49.404;11.152;2022-09-25T14:01:51;15.80;99.90
14769;DHT22;7476;49.404;11.152;2022-09-25T14:04:42;15.50;99.90
14769;DHT22;7476;49.404;11.152;2022-09-25T14:07:18;15.00;99.90
14769;DHT22;7476;49.404;11.152;2022-09-25T14:09:48;14.80;99.90
14769;DHT22;7476;49.404;11.152;2022-09-25T14:12:25;14.50;99.90
14769;DHT22;7476;49.404;11.152;2022-09-25T14:14:56;14.10;99.90
14769;DHT22;7476;49.404;11.152;2022-09-25T14:17:27;13.80;99.90
14769;DHT22;7476;49.404;11.152;2022-09-25T14:19:59;13.50;99.90
14769;DHT22;7476;49.404;11.152;2022-09-25T14:22:34;13.40;99.90
14769;DHT22;7476;49.404;11.152;2022-09-25T14:25:22;13.30;99.90
14769;DHT22;7476;49.404;11.152;2022-09-25T14:27:50;13.30;99.90
14769;DHT22;7476;49.404;11.152;2022-09-25T14:30:17;13.40;99.90
14769;DHT22;7476;49.404;11.152;2022-09-25T14:32:53;13.50;99.90
14769;DHT22;7476;49.404;11.152;2022-09-25T14:35:30;13.60;99.90
14769;DHT22;7476;49.404;11.152;2022-09-25T14:41:16;13.70;99.90
14769;DHT22;7476;49.404;11.152;2022-09-25T14:44:04;13.90;99.90
14769;DHT22;7476;49.404;11.152;2022-09-25T14:46:34;14.00;99.90
14769;DHT22;7476;49.404;11.152;2022-09-25T14:49:05;14.10;99.90
14769;DHT22;7476;49.404;11.152;2022-09-25T14:51:37;14.30;99.90
14769;DHT22;7476;49.404;11.152;2022-09-25T14:54:08;14.50;99.90
14769;DHT22;7476;49.404;11.152;2022-09-25T14:56:35;14.60;99.90
14769;DHT22;7476;49.404;11.152;2022-09-25T14:59:07;14.60;99.90
14769;DHT22;7476;49.404;11.152;2022-09-25T15:01:44;14.80;99.90
14769;DHT22;7476;49.404;11.152;2022-09-25T15:04:12;14.80;99.90
14769;DHT22;7476;49.404;11.152;2022-09-25T15:06:58;14.60;99.90
14769;DHT22;7476;49.404;11.152;2022-09-25T15:09:29;14.40;99.90
14769;DHT22;7476;49.404;11.152;2022-09-25T15:11:56;14.30;99.90
14769;DHT22;7476;49.404;11.152;2022-09-25T15:14:22;14.20;99.90
14769;DHT22;7476;49.404;11.152;2022-09-25T15:16:49;14.30;99.90
14769;DHT22;7476;49.404;11.152;2022-09-25T15:19:35;14.60;99.90
14769;DHT22;7476;49.404;11.152;2022-09-25T15:22:08;14.80;99.90
14769;DHT22;7476;49.404;11.152;2022-09-25T15:24:36;14.90;99.90
14769;DHT22;7476;49.404;11.152;2022-09-25T15:27:05;15.20;99.90
14769;DHT22;7476;49.404;11.152;2022-09-25T15:29:35;15.10;99.90
14769;DHT22;7476;49.404;11.152;2022-09-25T15:32:03;15.10;99.90
14769;DHT22;7476;49.404;11.152;2022-09-25T15:34:30;15.00;99.90
14769;DHT22;7476;49.404;11.152;2022-09-25T15:37:13;14.90;99.90
14769;DHT22;7476;49.404;11.152;2022-09-25T15:39:42;14.50;99.90
14769;DHT22;7476;49.404;11.152;2022-09-25T15:42:12;14.40;99.90
14769;DHT22;7476;49.404;11.152;2022-09-25T15:44:39;14.20;99.90
14769;DHT22;7476;49.404;11.152;2022-09-25T15:50:18;14.40;99.90
14769;DHT22;7476;49.404;11.152;2022-09-25T15:52:49;14.40;99.90
14769;DHT22;7476;49.404;11.152;2022-09-25T15:55:17;14.40;99.90
14769;DHT22;7476;49.404;11.152;2022-09-25T15:57:45;14.40;99.90
14769;DHT22;7476;49.404;11.152;2022-09-25T16:00:17;14.40;99.90
14769;DHT22;7476;49.404;11.152;2022-09-25T16:03:05;14.30;99.90